MEB weather

Melbourne Essendon Airport
Victoria, Australia

Public forecast

Using degrees Celsius for public forecast. Weather courtesy of forecast.io.

METAR (pilot weather report)

Retrieved 2019/02/20 13:00 UTC (3 minutes ago):

YMEN 201300Z AUTO 23010KT 9999 // SCT039 16/11 Q1017

TAF (pilot weather forecast)

Closest forecast is Melbourne International Airport, 4.3 nm (8.0 km) NW. Retrieved 2019/02/20 12:00 UTC (1 hour ago):

TAF YMML 201116Z 2012/2118 17012KT 9999 -SHRA SCT018 BKN035 FM201300 23010KT 9999 -SHRA SCT018 SCT030 FM202100 21010KT 9999 BKN035 FM210200 17015KT 9999 FEW035 BECMG 2111/2113 16006KT 9999 FEW018 SCT025